Time;durP1;ratioP1;P1;durP2;ratioP2;P2;SDS_P1;SDS_P2;PMS_P1;PMS_P2;Temp;Humidity;BMP_temperature;BMP_pressure;BME280_temperature;BME280_humidity;BME280_pressure;Samples;Min_cycle;Max_cycle;Signal;HPM_P1;HPM_P2
2022/10/28 00:00:23;;;;;;;21.85;11.02;;;15.00;99.90;;;;;;5088604;28;20557;-78
2022/10/28 00:02:49;;;;;;;20.38;10.85;;;14.90;99.90;;;;;;5088906;28;20127;-78
2022/10/28 00:05:14;;;;;;;17.35;10.85;;;14.90;99.90;;;;;;5068404;28;20056;-79
2022/10/28 00:07:40;;;;;;;19.88;13.25;;;15.00;99.90;;;;;;5083377;28;20020;-78
2022/10/28 00:10:06;;;;;;;17.15;10.55;;;14.90;99.90;;;;;;5085709;28;20028;-81
2022/10/28 00:12:36;;;;;;;15.93;11.13;;;14.90;99.90;;;;;;5076799;28;20052;-79
2022/10/28 00:15:02;;;;;;;25.27;11.98;;;14.80;99.90;;;;;;5075604;28;20366;-80
2022/10/28 00:17:27;;;;;;;20.33;12.18;;;14.90;99.90;;;;;;5088893;28;20531;-80
2022/10/28 00:19:53;;;;;;;19.23;11.93;;;14.90;99.90;;;;;;5075997;28;20115;-81
2022/10/28 00:22:18;;;;;;;18.20;12.13;;;14.80;99.90;;;;;;5076753;28;20357;-80
2022/10/28 00:24:44;;;;;;;18.98;12.27;;;14.90;99.90;;;;;;5075871;28;20040;-80
2022/10/28 00:27:09;;;;;;;22.13;11.95;;;14.80;99.90;;;;;;5077908;28;20027;-80
2022/10/28 00:29:35;;;;;;;27.35;11.60;;;14.80;99.90;;;;;;5088431;28;20024;-81
2022/10/28 00:32:00;;;;;;;19.17;12.10;;;14.80;99.90;;;;;;5075354;28;20024;-78
2022/10/28 00:34:26;;;;;;;25.58;11.60;;;14.80;99.90;;;;;;5075930;28;20016;-79
2022/10/28 00:36:52;;;;;;;19.20;11.35;;;14.70;99.90;;;;;;5075491;28;20108;-80
2022/10/28 00:39:20;;;;;;;14.65;11.65;;;14.80;99.90;;;;;;5076050;28;20028;-79
2022/10/28 00:41:49;;;;;;;18.58;12.15;;;14.70;99.90;;;;;;5075994;28;20107;-81
2022/10/28 00:44:36;;;;;;;18.83;12.25;;;14.70;99.90;;;;;;5075055;28;20028;-80
2022/10/28 00:47:02;;;;;;;20.98;11.75;;;14.70;99.90;;;;;;5075145;28;20431;-81
2022/10/28 00:49:33;;;;;;;22.90;12.20;;;14.70;99.90;;;;;;5043859;28;20021;-80
2022/10/28 00:52:06;;;;;;;22.08;11.65;;;14.70;99.90;;;;;;5074687;28;20032;-79
2022/10/28 00:54:32;;;;;;;23.50;11.75;;;14.70;99.90;;;;;;5075445;28;20086;-80
2022/10/28 00:57:02;;;;;;;21.35;11.77;;;14.70;99.90;;;;;;5074611;28;20097;-80
2022/10/28 00:59:32;;;;;;;23.58;12.52;;;14.60;99.90;;;;;;5074982;28;20021;-79
2022/10/28 01:01:58;;;;;;;26.23;13.30;;;14.70;99.90;;;;;;5074882;28;20020;-79
2022/10/28 01:04:24;;;;;;;16.80;12.60;;;14.60;99.90;;;;;;5074936;28;20037;-79
2022/10/28 01:06:50;;;;;;;21.40;12.38;;;14.60;99.90;;;;;;5074702;28;20096;-80
2022/10/28 01:09:16;;;;;;;16.00;12.20;;;14.60;99.90;;;;;;5075157;28;20105;-80
2022/10/28 01:11:52;;;;;;;19.33;12.65;;;14.60;99.90;;;;;;5074864;28;20048;-80
2022/10/28 01:14:31;;;;;;;19.27;12.70;;;14.60;99.90;;;;;;5075514;28;20028;-79
2022/10/28 01:17:05;;;;;;;18.80;11.25;;;14.60;99.90;;;;;;5075600;28;20169;-79
2022/10/28 01:19:34;;;;;;;26.45;13.35;;;14.60;99.90;;;;;;5073878;28;20021;-79
2022/10/28 01:22:38;;;;;;;18.23;11.90;;;14.60;99.90;;;;;;5075037;28;20024;-80
2022/10/28 01:25:18;;;;;;;26.42;12.60;;;14.50;99.90;;;;;;5034603;28;20436;-81
2022/10/28 01:27:52;;;;;;;18.75;11.68;;;14.50;99.90;;;;;;5034272;28;20025;-80
2022/10/28 01:30:23;;;;;;;19.48;12.52;;;14.50;99.90;;;;;;5034580;28;20031;-79
2022/10/28 01:32:58;;;;;;;12.43;11.15;;;14.60;99.90;;;;;;5020475;28;20116;-79
2022/10/28 01:35:31;;;;;;;22.25;12.88;;;14.60;99.90;;;;;;5034011;28;20489;-78
2022/10/28 01:38:05;;;;;;;24.65;11.82;;;14.60;99.90;;;;;;5034131;28;20026;-79
2022/10/28 01:41:12;;;;;;;21.40;12.13;;;14.60;99.90;;;;;;5033610;28;20113;-79
2022/10/28 01:43:47;;;;;;;20.40;11.75;;;14.60;99.90;;;;;;5030093;28;20029;-80
2022/10/28 01:46:51;;;;;;;17.55;12.20;;;14.60;99.90;;;;;;5012541;28;20509;-81
2022/10/28 01:49:27;;;;;;;21.75;11.65;;;15.70;99.90;;;;;;5004839;28;20030;-79
2022/10/28 01:51:57;;;;;;;16.33;11.63;;;14.50;99.90;;;;;;5029996;28;20032;-79
2022/10/28 01:54:25;;;;;;;;;;;14.50;99.90;;;;;;5022017;28;20037;-81
2022/10/28 01:56:54;;;;;;;20.40;11.95;;;14.50;99.90;;;;;;5044284;28;19905;-78
2022/10/28 01:59:25;;;;;;;22.13;11.50;;;14.50;99.90;;;;;;5038834;28;20026;-79
2022/10/28 02:01:51;;;;;;;19.60;11.32;;;14.50;99.90;;;;;;5030988;28;20029;-79
2022/10/28 02:04:16;;;;;;;16.13;10.60;;;14.50;99.90;;;;;;5027795;28;20042;-79
2022/10/28 02:06:45;;;;;;;16.88;11.10;;;14.40;99.90;;;;;;5041961;28;20018;-79
2022/10/28 02:09:22;;;;;;;17.83;11.07;;;14.40;99.90;;;;;;5044663;28;20087;-79
2022/10/28 02:12:17;;;;;;;14.98;11.75;;;14.40;99.90;;;;;;5049112;28;20031;-79
2022/10/28 02:15:17;;;;;;;21.73;10.95;;;14.30;99.90;;;;;;5051205;28;20475;-80
2022/10/28 02:17:53;;;;;;;17.35;11.20;;;14.30;99.90;;;;;;5040171;28;20018;-79
2022/10/28 02:20:42;;;;;;;15.60;10.80;;;14.30;99.90;;;;;;5039155;28;20048;-79
2022/10/28 02:23:20;;;;;;;16.95;11.38;;;14.30;99.90;;;;;;5067101;28;20040;-80
2022/10/28 02:25:51;;;;;;;17.15;11.50;;;14.30;99.90;;;;;;5074037;28;20357;-79
2022/10/28 02:28:49;;;;;;;18.60;10.68;;;14.30;99.90;;;;;;5073397;28;20407;-79
2022/10/28 02:31:25;;;;;;;21.25;11.10;;;14.30;99.90;;;;;;5062332;28;20078;-80
2022/10/28 02:33:56;;;;;;;16.13;10.85;;;14.30;99.90;;;;;;5073636;28;20030;-79
2022/10/28 02:36:23;;;;;;;;;;;14.30;99.90;;;;;;5074095;28;20032;-81
2022/10/28 02:38:54;;;;;;;20.90;10.60;;;14.20;99.90;;;;;;5074324;28;20473;-80
2022/10/28 02:41:37;;;;;;;23.10;12.27;;;14.20;99.90;;;;;;5073882;28;20374;-80
2022/10/28 02:44:10;;;;;;;14.93;10.18;;;14.20;99.90;;;;;;5072748;28;20055;-80
2022/10/28 02:46:38;;;;;;;15.70;11.38;;;14.30;99.90;;;;;;5073364;28;20380;-80
2022/10/28 02:49:09;;;;;;;16.65;10.35;;;14.20;99.90;;;;;;5073067;28;20055;-81
2022/10/28 02:51:56;;;;;;;18.13;9.98;;;14.20;99.90;;;;;;5073150;28;20028;-79
2022/10/28 02:54:55;;;;;;;13.75;10.18;;;14.20;99.90;;;;;;5058725;28;20036;-80
2022/10/28 02:57:31;;;;;;;13.93;10.43;;;14.20;99.90;;;;;;5072952;28;20021;-79
2022/10/28 03:00:00;;;;;;;19.13;10.50;;;14.20;99.90;;;;;;5073314;28;20594;-80
2022/10/28 03:02:26;;;;;;;17.00;9.80;;;14.20;99.90;;;;;;5073104;28;20059;-79
2022/10/28 03:04:52;;;;;;;20.60;10.25;;;14.10;99.90;;;;;;5072113;28;20368;-79
2022/10/28 03:07:17;;;;;;;17.95;10.55;;;14.20;99.90;;;;;;5079414;28;20021;-82
2022/10/28 03:09:43;;;;;;;27.42;11.93;;;14.20;99.90;;;;;;5077140;28;20032;-78
2022/10/28 03:12:09;;;;;;;17.00;10.02;;;14.10;99.90;;;;;;5069162;28;20021;-80
2022/10/28 03:14:34;;;;;;;16.48;9.75;;;14.10;99.90;;;;;;5067436;28;20066;-80
2022/10/28 03:17:00;;;;;;;18.77;9.80;;;14.10;99.90;;;;;;5072653;28;20013;-80
2022/10/28 03:19:26;;;;;;;22.23;9.85;;;14.10;99.90;;;;;;5072417;28;20032;-79
2022/10/28 03:21:51;;;;;;;18.05;10.07;;;14.10;99.90;;;;;;5073212;28;20047;-80
2022/10/28 03:24:17;;;;;;;19.00;10.38;;;14.10;99.90;;;;;;5072619;28;20052;-80
2022/10/28 03:26:43;;;;;;;19.70;9.77;;;14.10;99.90;;;;;;5072103;28;20024;-80
2022/10/28 03:29:08;;;;;;;18.48;10.63;;;14.00;99.90;;;;;;5072683;28;20031;-80
2022/10/28 03:31:34;;;;;;;21.13;11.13;;;14.00;99.90;;;;;;5072669;28;20024;-80
2022/10/28 03:33:59;;;;;;;14.57;9.27;;;14.00;99.90;;;;;;5073045;28;20020;-80
2022/10/28 03:36:25;;;;;;;17.90;9.40;;;14.00;99.90;;;;;;5072727;28;20119;-78
2022/10/28 03:38:50;;;;;;;17.83;9.63;;;14.00;99.90;;;;;;5075374;28;20105;-79
2022/10/28 03:41:16;;;;;;;17.52;10.13;;;14.00;99.90;;;;;;5076893;28;20027;-80
2022/10/28 03:43:42;;;;;;;21.98;10.43;;;14.00;99.90;;;;;;5087203;28;20080;-80
2022/10/28 03:46:07;;;;;;;14.50;9.45;;;14.00;99.90;;;;;;5083560;28;20134;-80
2022/10/28 03:48:33;;;;;;;21.45;9.15;;;13.90;99.90;;;;;;5076919;28;20492;-80
2022/10/28 03:50:58;;;;;;;19.10;9.50;;;13.90;99.90;;;;;;5076146;28;20407;-80
2022/10/28 03:53:24;;;;;;;20.40;10.02;;;13.90;99.90;;;;;;5067593;28;20048;-79
2022/10/28 03:55:54;;;;;;;18.33;8.45;;;13.90;99.90;;;;;;5069828;28;20472;-80
2022/10/28 03:58:20;;;;;;;12.52;8.50;;;13.80;99.90;;;;;;5077085;28;20025;-80
2022/10/28 04:00:48;;;;;;;13.35;9.18;;;13.80;99.90;;;;;;5075310;28;20090;-80
2022/10/28 04:03:17;;;;;;;14.20;8.70;;;13.80;99.90;;;;;;5075688;28;20025;-80
2022/10/28 04:05:43;;;;;;;15.35;9.23;;;13.70;99.90;;;;;;5075564;28;20040;-80
2022/10/28 04:08:11;;;;;;;14.70;9.77;;;13.80;99.90;;;;;;5075517;28;20518;-80
2022/10/28 04:10:36;;;;;;;16.00;8.93;;;13.80;99.90;;;;;;5078347;28;20118;-80
2022/10/28 04:13:04;;;;;;;18.63;9.93;;;13.80;99.90;;;;;;5087088;28;20476;-81
2022/10/28 04:15:30;;;;;;;13.25;8.40;;;13.70;99.90;;;;;;5100973;28;20085;-81
2022/10/28 04:17:56;;;;;;;15.50;9.27;;;13.70;99.90;;;;;;5091021;28;20032;-78
2022/10/28 04:20:22;;;;;;;14.57;9.52;;;13.70;99.90;;;;;;5076792;28;20017;-81
2022/10/28 04:22:48;;;;;;;14.88;8.48;;;13.70;99.90;;;;;;5074408;28;20048;-78
2022/10/28 04:25:14;;;;;;;16.92;9.02;;;13.70;99.90;;;;;;5075380;28;20035;-79
2022/10/28 04:27:39;;;;;;;15.68;9.43;;;13.70;99.90;;;;;;5075906;28;20491;-81
2022/10/28 04:30:06;;;;;;;17.65;10.10;;;13.60;99.90;;;;;;5075275;28;20072;-80
2022/10/28 04:32:31;;;;;;;12.95;9.43;;;13.60;99.90;;;;;;5075288;28;20023;-80
2022/10/28 04:34:57;;;;;;;20.65;9.55;;;13.60;99.90;;;;;;5075224;28;20032;-81
2022/10/28 04:37:22;;;;;;;24.48;10.13;;;13.60;99.90;;;;;;5076126;28;20016;-81
2022/10/28 04:39:48;;;;;;;20.90;9.75;;;13.60;99.90;;;;;;5076189;28;20369;-80
2022/10/28 04:42:14;;;;;;;16.38;9.35;;;13.60;99.90;;;;;;5084651;28;20062;-79
2022/10/28 04:44:40;;;;;;;15.85;8.10;;;13.60;99.90;;;;;;5092252;28;20037;-81
2022/10/28 04:47:05;;;;;;;22.60;9.80;;;13.60;99.90;;;;;;5093369;28;20115;-79
2022/10/28 04:49:31;;;;;;;16.02;9.23;;;13.60;99.90;;;;;;5077577;28;20021;-79
2022/10/28 04:51:57;;;;;;;17.38;8.85;;;13.60;99.90;;;;;;5096858;28;20021;-79
2022/10/28 04:54:22;;;;;;;17.75;9.35;;;13.50;99.90;;;;;;5057826;28;20040;-79
2022/10/28 04:56:48;;;;;;;15.18;8.55;;;13.50;99.90;;;;;;5075848;28;20078;-81
2022/10/28 04:59:13;;;;;;;14.20;8.63;;;13.60;99.90;;;;;;5089343;28;20461;-80
2022/10/28 05:01:39;;;;;;;17.48;8.90;;;13.50;99.90;;;;;;5081274;28;20052;-80
2022/10/28 05:04:04;;;;;;;13.75;8.93;;;13.50;99.90;;;;;;5075114;28;20109;-79
2022/10/28 05:06:30;;;;;;;10.82;8.70;;;13.50;99.90;;;;;;5074902;28;20078;-80
2022/10/28 05:08:57;;;;;;;21.80;8.32;;;13.50;99.90;;;;;;5078336;28;20017;-79
2022/10/28 05:11:23;;;;;;;15.52;8.35;;;13.50;99.90;;;;;;5083857;28;20032;-79
2022/10/28 05:13:51;;;;;;;17.52;9.13;;;13.50;99.90;;;;;;5078957;28;20148;-80
2022/10/28 05:16:17;;;;;;;20.75;8.75;;;13.50;99.90;;;;;;5076095;28;20054;-79
2022/10/28 05:18:46;;;;;;;13.57;8.73;;;13.50;99.90;;;;;;5075102;28;20063;-79
2022/10/28 05:21:12;;;;;;;15.93;8.35;;;13.50;99.90;;;;;;5076471;28;20372;-81
2022/10/28 05:23:37;;;;;;;14.95;8.77;;;13.50;99.90;;;;;;5066473;28;20045;-78
2022/10/28 05:26:03;;;;;;;19.83;8.77;;;13.40;99.90;;;;;;5073023;28;20496;-80
2022/10/28 05:28:28;;;;;;;13.45;7.53;;;13.50;99.90;;;;;;5074152;28;20020;-80
2022/10/28 05:30:55;;;;;;;15.30;8.05;;;13.40;99.90;;;;;;5087626;28;20028;-80
2022/10/28 05:33:22;;;;;;;8.48;7.55;;;13.50;99.90;;;;;;5096907;28;20019;-78
2022/10/28 05:35:48;;;;;;;15.10;7.88;;;13.50;99.90;;;;;;5096703;28;20025;-80
2022/10/28 05:38:14;;;;;;;17.15;8.38;;;13.40;99.90;;;;;;5091054;28;20035;-80
2022/10/28 05:40:40;;;;;;;14.20;8.07;;;13.40;99.90;;;;;;5086295;28;20388;-81
2022/10/28 05:43:08;;;;;;;18.70;7.80;;;13.40;99.90;;;;;;5089267;28;20034;-80
2022/10/28 05:45:34;;;;;;;17.40;8.20;;;13.40;99.90;;;;;;5064257;28;20040;-81
2022/10/28 05:47:59;;;;;;;14.95;8.40;;;12.80;99.90;;;;;;5076117;28;20020;-81
2022/10/28 05:50:25;;;;;;;13.38;7.93;;;13.30;99.90;;;;;;5077426;28;20032;-79
2022/10/28 05:52:53;;;;;;;15.50;9.23;;;13.40;99.90;;;;;;5070869;28;20017;-79
2022/10/28 05:55:20;;;;;;;20.77;8.80;;;13.40;99.90;;;;;;5072555;28;20035;-80
2022/10/28 05:57:50;;;;;;;15.73;7.97;;;13.40;99.90;;;;;;5073288;28;20032;-80
2022/10/28 06:00:19;;;;;;;15.77;7.43;;;13.40;99.90;;;;;;5072314;28;20029;-81
2022/10/28 06:02:45;;;;;;;17.13;7.80;;;13.40;99.90;;;;;;5069436;28;20509;-81
2022/10/28 06:05:11;;;;;;;15.57;7.88;;;13.40;99.90;;;;;;5071402;28;20036;-80
2022/10/28 06:07:39;;;;;;;11.98;7.50;;;13.40;99.90;;;;;;5082517;28;20070;-80
2022/10/28 06:10:08;;;;;;;14.23;7.47;;;13.40;99.90;;;;;;5092744;28;20019;-81
2022/10/28 06:12:34;;;;;;;17.63;8.70;;;13.40;99.90;;;;;;5063332;28;20052;-80
2022/10/28 06:14:59;;;;;;;13.50;7.85;;;13.40;99.90;;;;;;5060279;28;20051;-79
2022/10/28 06:17:25;;;;;;;18.33;7.65;;;13.30;99.90;;;;;;5060247;28;20029;-81
2022/10/28 06:19:51;;;;;;;21.45;7.90;;;13.40;99.90;;;;;;5061316;28;20477;-81
2022/10/28 06:22:17;;;;;;;17.02;7.93;;;13.40;99.90;;;;;;5070734;28;20109;-81
2022/10/28 06:24:44;;;;;;;17.80;9.18;;;13.40;99.90;;;;;;5065740;28;20039;-81
2022/10/28 06:27:09;;;;;;;21.60;8.80;;;13.40;99.90;;;;;;5071132;28;20413;-82
2022/10/28 06:29:35;;;;;;;14.10;7.60;;;13.40;99.90;;;;;;5069237;28;20023;-80
2022/10/28 06:32:00;;;;;;;16.58;7.93;;;13.50;99.90;;;;;;5075780;28;20024;-80
2022/10/28 06:34:26;;;;;;;24.42;8.27;;;13.40;99.90;;;;;;5064447;28;20372;-81
2022/10/28 06:36:52;;;;;;;16.83;8.20;;;13.50;99.90;;;;;;5065557;28;20052;-77
2022/10/28 06:39:18;;;;;;;16.25;8.07;;;13.50;99.90;;;;;;5060483;28;20055;-80
2022/10/28 06:41:45;;;;;;;17.90;8.60;;;13.60;99.90;;;;;;5074265;28;20110;-79
2022/10/28 06:44:10;;;;;;;13.10;7.93;;;13.60;99.90;;;;;;5082144;28;20033;-78
2022/10/28 06:46:36;;;;;;;16.58;7.95;;;13.60;99.90;;;;;;5072179;28;20020;-79
2022/10/28 06:49:03;;;;;;;19.23;8.00;;;13.60;99.90;;;;;;5098551;28;20088;-81
2022/10/28 06:51:29;;;;;;;24.65;8.55;;;13.60;99.90;;;;;;5096524;28;20044;-83
2022/10/28 06:53:55;;;;;;;21.27;8.57;;;13.60;99.90;;;;;;5076978;28;20032;-80
2022/10/28 06:56:21;;;;;;;14.25;7.82;;;13.60;99.90;;;;;;5087493;28;20025;-81
2022/10/28 06:58:51;;;;;;;15.00;8.52;;;13.60;99.90;;;;;;5083243;28;20020;-80
2022/10/28 07:01:16;;;;;;;19.70;7.73;;;13.70;99.90;;;;;;5077386;28;20028;-83
2022/10/28 07:03:42;;;;;;;15.82;7.57;;;13.70;99.90;;;;;;5077901;28;20273;-81
2022/10/28 07:06:09;;;;;;;12.07;7.45;;;13.70;99.90;;;;;;5080897;28;20031;-85
2022/10/28 07:08:35;;;;;;;14.05;7.68;;;13.70;99.90;;;;;;5091537;28;20029;-81
2022/10/28 07:11:01;;;;;;;18.20;8.00;;;13.70;99.90;;;;;;5085792;28;20042;-87
2022/10/28 07:13:27;;;;;;;20.42;8.73;;;13.70;99.90;;;;;;5099676;28;20025;-79
2022/10/28 07:15:56;;;;;;;11.85;9.43;;;13.70;99.90;;;;;;5095528;28;20091;-82
2022/10/28 07:18:25;;;;;;;17.88;7.75;;;13.80;99.90;;;;;;5095832;28;20051;-82
2022/10/28 07:20:51;;;;;;;23.17;7.88;;;13.80;99.90;;;;;;5095294;28;20016;-83
2022/10/28 07:23:16;;;;;;;10.70;6.95;;;13.80;99.90;;;;;;5105912;28;20161;-79
2022/10/28 07:25:42;;;;;;;14.80;8.02;;;14.00;99.90;;;;;;5084651;28;20036;-82
2022/10/28 07:28:08;;;;;;;16.38;8.43;;;14.00;99.90;;;;;;5090277;28;20027;-81
2022/10/28 07:30:40;;;;;;;20.52;8.18;;;14.00;99.90;;;;;;5084103;28;20537;-80
2022/10/28 07:33:05;;;;;;;17.88;9.13;;;14.10;99.90;;;;;;5078631;28;20112;-79
2022/10/28 07:35:31;;;;;;;16.13;7.55;;;14.20;99.90;;;;;;5080117;28;20044;-78
2022/10/28 07:37:57;;;;;;;17.60;8.05;;;14.30;99.90;;;;;;5079223;28;20028;-78
2022/10/28 07:40:24;;;;;;;22.33;8.23;;;14.40;99.90;;;;;;5078525;28;20116;-79
2022/10/28 07:42:50;;;;;;;26.63;8.82;;;14.40;99.90;;;;;;5100089;28;20066;-80
2022/10/28 07:45:16;;;;;;;14.88;6.93;;;14.50;99.90;;;;;;5077646;28;20028;-80
2022/10/28 07:47:43;;;;;;;19.25;8.10;;;14.60;99.90;;;;;;5072412;28;20032;-79
2022/10/28 07:50:10;;;;;;;11.27;7.50;;;14.60;99.90;;;;;;5065165;28;20036;-77
2022/10/28 07:52:36;;;;;;;23.70;8.57;;;14.70;99.90;;;;;;5076996;28;20029;-78
2022/10/28 07:55:06;;;;;;;15.30;7.43;;;14.80;99.90;;;;;;5074551;28;20419;-77
2022/10/28 07:57:33;;;;;;;16.10;7.50;;;14.90;99.90;;;;;;5074680;28;20024;-77
2022/10/28 07:59:59;;;;;;;17.33;7.70;;;14.90;99.90;;;;;;5074136;28;20479;-78
2022/10/28 08:02:26;;;;;;;17.80;7.65;;;14.90;99.90;;;;;;5076457;28;20021;-78
2022/10/28 08:04:54;;;;;;;21.20;8.48;;;15.00;99.90;;;;;;5080102;28;20052;-78
2022/10/28 08:07:20;;;;;;;11.70;7.40;;;15.10;99.90;;;;;;5094207;28;20036;-77
2022/10/28 08:09:45;;;;;;;17.17;7.85;;;15.10;99.90;;;;;;5091814;28;20052;-80
2022/10/28 08:12:13;;;;;;;19.52;8.25;;;15.20;99.90;;;;;;5093661;28;20474;-78
2022/10/28 08:14:39;;;;;;;28.05;7.57;;;15.30;99.90;;;;;;5086402;28;20508;-78
2022/10/28 08:17:07;;;;;;;23.38;7.20;;;15.30;99.90;;;;;;5078959;28;20087;-78
2022/10/28 08:19:33;;;;;;;14.60;8.23;;;15.40;99.90;;;;;;5075949;28;20495;-78
2022/10/28 08:21:58;;;;;;;13.10;7.38;;;15.40;99.90;;;;;;5074278;28;20020;-77
2022/10/28 08:24:24;;;;;;;25.80;8.73;;;15.50;99.90;;;;;;5072963;28;20136;-77
2022/10/28 08:26:50;;;;;;;11.20;7.72;;;15.60;99.90;;;;;;5072904;28;20028;-78
2022/10/28 08:29:16;;;;;;;21.45;7.65;;;15.60;99.90;;;;;;5080154;28;20024;-79
2022/10/28 08:31:41;;;;;;;15.77;7.22;;;15.60;99.90;;;;;;5071686;28;20148;-79
2022/10/28 08:34:07;;;;;;;16.88;8.23;;;15.70;99.90;;;;;;5058039;28;20025;-79
2022/10/28 08:36:33;;;;;;;15.70;7.55;;;15.80;99.90;;;;;;5064240;28;20033;-78
2022/10/28 08:39:00;;;;;;;15.10;7.90;;;15.90;99.90;;;;;;5063959;28;20052;-79
2022/10/28 08:41:50;;;;;;;16.55;8.32;;;16.00;99.90;;;;;;5073367;28;20088;-77
2022/10/28 08:44:37;;;;;;;13.50;7.22;;;16.10;99.90;;;;;;5083479;28;20036;-79
2022/10/28 08:47:20;;;;;;;12.48;7.80;;;16.10;99.90;;;;;;5088239;28;20108;-78
2022/10/28 08:49:50;;;;;;;13.98;7.00;;;16.20;99.90;;;;;;5081032;28;20031;-78
2022/10/28 08:52:30;;;;;;;20.43;7.63;;;16.20;99.90;;;;;;5074135;28;20029;-80
2022/10/28 08:55:11;;;;;;;12.07;6.75;;;16.30;99.90;;;;;;5055680;28;20039;-80
2022/10/28 08:57:38;;;;;;;;;;;16.30;99.90;;;;;;5082921;28;20056;-78
2022/10/28 09:00:27;;;;;;;11.60;6.80;;;16.40;99.90;;;;;;5083162;28;19916;-80
2022/10/28 09:03:11;;;;;;;15.70;7.07;;;16.40;99.90;;;;;;5082523;28;20031;-80
2022/10/28 09:05:40;;;;;;;15.98;6.97;;;16.40;99.90;;;;;;5090171;28;20048;-79
2022/10/28 09:08:28;;;;;;;14.38;7.03;;;16.40;99.90;;;;;;5081519;28;20056;-79
2022/10/28 09:11:19;;;;;;;14.25;7.53;;;16.40;99.90;;;;;;5098550;28;20040;-78
2022/10/28 09:13:53;;;;;;;16.60;8.02;;;16.50;99.90;;;;;;5074195;28;20035;-79
2022/10/28 09:16:36;;;;;;;16.58;8.05;;;16.50;99.90;;;;;;5071905;28;20036;-79
2022/10/28 09:19:21;;;;;;;12.15;6.63;;;16.50;99.90;;;;;;5070213;28;20070;-78
2022/10/28 09:21:56;;;;;;;14.40;7.22;;;16.50;99.90;;;;;;5075690;28;20069;-80
2022/10/28 09:24:44;;;;;;;25.08;7.97;;;16.50;99.90;;;;;;5073927;28;20044;-80
2022/10/28 09:27:30;;;;;;;22.10;8.07;;;16.50;99.90;;;;;;5077010;28;20029;-80
2022/10/28 09:30:23;;;;;;;22.42;8.10;;;16.60;99.90;;;;;;5089816;28;20039;-79
2022/10/28 09:33:04;;;;;;;13.55;7.47;;;16.70;99.90;;;;;;5089544;28;20024;-80
2022/10/28 09:35:44;;;;;;;13.02;7.70;;;16.70;99.90;;;;;;5076412;28;20384;-80
2022/10/28 09:38:32;;;;;;;12.73;6.60;;;16.90;99.90;;;;;;5083517;28;20128;-79
2022/10/28 09:41:01;;;;;;;9.73;6.97;;;17.00;99.90;;;;;;5086051;28;20032;-79
2022/10/28 09:43:34;;;;;;;22.95;7.60;;;17.10;99.90;;;;;;5093228;28;20020;-78
2022/10/28 09:46:05;;;;;;;17.60;7.82;;;17.10;99.90;;;;;;5092019;28;20037;-80
2022/10/28 09:48:42;;;;;;;15.02;7.32;;;17.20;99.90;;;;;;5078245;28;20031;-81
2022/10/28 09:51:33;;;;;;;14.13;7.32;;;17.30;99.90;;;;;;5088707;28;20036;-80
2022/10/28 09:54:01;;;;;;;16.55;7.93;;;17.30;99.90;;;;;;5082914;28;20021;-81
2022/10/28 09:56:28;;;;;;;11.85;7.15;;;17.40;99.90;;;;;;5077657;28;20062;-79
2022/10/28 09:58:58;;;;;;;12.40;7.38;;;17.60;99.90;;;;;;5076849;28;20020;-81
2022/10/28 10:01:25;;;;;;;12.68;6.78;;;17.70;99.90;;;;;;5078622;28;20024;-79
2022/10/28 10:03:51;;;;;;;15.18;6.88;;;17.80;99.90;;;;;;5073168;28;20029;-78
2022/10/28 10:06:37;;;;;;;16.67;6.85;;;17.80;99.90;;;;;;5074127;28;20044;-78
2022/10/28 10:09:03;;;;;;;10.85;6.05;;;17.90;99.90;;;;;;5080064;28;20025;-79
2022/10/28 10:11:45;;;;;;;12.35;6.72;;;18.00;99.90;;;;;;5085342;28;20030;-80
2022/10/28 10:14:26;;;;;;;12.15;7.20;;;18.00;99.90;;;;;;5080914;28;20024;-79
2022/10/28 10:16:56;;;;;;;19.80;6.75;;;18.20;99.90;;;;;;5085941;28;20017;-79
2022/10/28 10:19:22;;;;;;;12.63;6.10;;;18.20;99.90;;;;;;5086502;28;20035;-78
2022/10/28 10:21:50;;;;;;;18.08;6.93;;;18.30;99.90;;;;;;5082303;28;20017;-79
2022/10/28 10:24:32;;;;;;;21.25;6.75;;;18.40;99.90;;;;;;5073860;28;20040;-79
2022/10/28 10:27:09;;;;;;;10.48;5.82;;;18.40;99.90;;;;;;5085310;28;20021;-79
2022/10/28 10:29:36;;;;;;;19.48;6.88;;;18.50;99.90;;;;;;5088355;28;20649;-79
2022/10/28 10:32:06;;;;;;;16.23;6.63;;;18.50;99.90;;;;;;5085501;28;20024;-80
2022/10/28 10:34:32;;;;;;;17.73;6.53;;;18.60;99.90;;;;;;5075677;28;20035;-80
2022/10/28 10:36:59;;;;;;;13.38;5.88;;;18.70;99.90;;;;;;5078220;28;20028;-80
2022/10/28 10:39:37;;;;;;;11.40;5.65;;;18.70;99.90;;;;;;5076912;28;20021;-83
2022/10/28 10:42:15;;;;;;;16.77;5.93;;;18.90;99.90;;;;;;5085445;28;20143;-83
2022/10/28 10:44:42;;;;;;;20.27;6.75;;;19.00;99.90;;;;;;5083682;28;20079;-83
2022/10/28 10:47:15;;;;;;;21.05;6.50;;;19.10;99.90;;;;;;5060140;28;20033;-82
2022/10/28 10:49:41;;;;;;;14.50;6.45;;;19.10;99.90;;;;;;5069263;28;20017;-83
2022/10/28 10:52:19;;;;;;;11.77;5.68;;;19.20;99.90;;;;;;5064984;28;20025;-81
2022/10/28 10:54:59;;;;;;;15.95;5.03;;;19.20;99.90;;;;;;5061618;28;20028;-82
2022/10/28 10:57:25;;;;;;;13.88;6.38;;;19.20;99.90;;;;;;5077918;28;20453;-83
2022/10/28 10:59:53;;;;;;;17.00;6.65;;;19.30;99.90;;;;;;5094771;28;20037;-83
2022/10/28 11:02:24;;;;;;;18.10;6.38;;;19.40;99.90;;;;;;5078931;28;20094;-82
2022/10/28 11:04:52;;;;;;;11.13;5.90;;;19.40;99.90;;;;;;5077062;28;20396;-82
2022/10/28 11:07:18;;;;;;;24.85;5.93;;;19.40;99.90;;;;;;5069664;28;20016;-83
2022/10/28 11:09:47;;;;;;;14.80;5.97;;;19.40;99.90;;;;;;5073271;28;20043;-81
2022/10/28 11:12:34;;;;;;;24.38;6.75;;;19.40;99.90;;;;;;5062122;28;20404;-82
2022/10/28 11:15:03;;;;;;;17.30;6.60;;;19.50;99.90;;;;;;5067262;28;20027;-81
2022/10/28 11:17:31;;;;;;;16.15;5.95;;;19.50;99.90;;;;;;5066774;28;20024;-82
2022/10/28 11:20:19;;;;;;;11.88;5.63;;;19.60;99.90;;;;;;5061891;28;20029;-82
2022/10/28 11:23:01;;;;;;;20.92;6.63;;;19.60;99.90;;;;;;5021815;28;20451;-82
2022/10/28 11:25:40;;;;;;;15.35;6.05;;;19.60;99.90;;;;;;5068465;28;20086;-83
2022/10/28 11:28:33;;;;;;;16.77;5.68;;;19.70;99.90;;;;;;5077254;28;20421;-82
2022/10/28 11:31:15;;;;;;;19.55;6.57;;;19.70;99.90;;;;;;5079462;28;20048;-83
2022/10/28 11:33:41;;;;;;;18.92;6.72;;;19.70;99.90;;;;;;5077409;28;20033;-78
2022/10/28 11:36:33;;;;;;;13.55;6.18;;;19.70;99.90;;;;;;5076932;28;20492;-83
2022/10/28 11:39:18;;;;;;;13.80;6.13;;;19.70;99.90;;;;;;5080749;28;20021;-82
2022/10/28 11:41:53;;;;;;;14.25;6.10;;;19.70;99.90;;;;;;5067588;28;20028;-82
2022/10/28 11:44:53;;;;;;;17.23;6.25;;;19.80;99.90;;;;;;5070672;28;20047;-80
2022/10/28 11:47:51;;;;;;;16.67;5.82;;;19.80;99.90;;;;;;5076491;28;20078;-82
2022/10/28 11:50:22;;;;;;;14.80;6.45;;;19.90;99.90;;;;;;5075543;28;20091;-83
2022/10/28 11:53:23;;;;;;;17.90;6.50;;;19.90;99.90;;;;;;5069247;28;20101;-80
2022/10/28 11:56:14;;;;;;;17.67;6.00;;;19.90;99.90;;;;;;5069979;28;20025;-82
2022/10/28 11:59:07;;;;;;;13.27;6.10;;;19.90;99.90;;;;;;5068647;28;20036;-82
2022/10/28 12:01:36;;;;;;;12.73;6.07;;;19.90;99.90;;;;;;5075080;28;20389;-82
2022/10/28 12:04:13;;;;;;;13.60;5.43;;;19.90;99.90;;;;;;5083189;28;20103;-81
2022/10/28 12:06:57;;;;;;;16.85;6.32;;;19.90;99.90;;;;;;5088098;28;20480;-82
2022/10/28 12:09:57;;;;;;;15.27;5.55;;;20.00;99.90;;;;;;5085270;28;20029;-82
2022/10/28 12:12:48;;;;;;;19.65;5.28;;;20.00;99.90;;;;;;5087964;28;20025;-81
2022/10/28 12:15:18;;;;;;;;;;;20.00;99.90;;;;;;5092071;28;20024;-81
2022/10/28 12:17:50;;;;;;;14.77;5.45;;;20.00;99.90;;;;;;5087824;28;20133;-81
2022/10/28 12:20:25;;;;;;;20.90;4.90;;;20.10;99.90;;;;;;5093071;28;20062;-81
2022/10/28 12:22:55;;;;;;;17.45;5.40;;;20.10;99.90;;;;;;5098235;28;20048;-82
2022/10/28 12:25:24;;;;;;;;;;;20.20;99.90;;;;;;5073318;28;20043;-79
2022/10/28 12:27:54;;;;;;;18.20;5.38;;;20.10;99.90;;;;;;5084019;28;20253;-80
2022/10/28 12:30:22;;;;;;;;;;;20.20;99.90;;;;;;5078888;28;20023;-79
2022/10/28 12:32:53;;;;;;;16.50;5.65;;;20.20;99.90;;;;;;5076159;28;19958;-80
2022/10/28 12:35:28;;;;;;;20.27;5.47;;;20.30;99.90;;;;;;5080897;28;20021;-80
2022/10/28 12:38:05;;;;;;;19.60;5.75;;;20.30;99.90;;;;;;5080549;28;20032;-81
2022/10/28 12:41:03;;;;;;;15.48;5.43;;;20.30;99.90;;;;;;5082629;28;20095;-80
2022/10/28 12:43:34;;;;;;;19.30;5.45;;;20.30;99.90;;;;;;5066772;28;20036;-80
2022/10/28 12:46:00;;;;;;;16.90;5.40;;;20.30;99.90;;;;;;5079262;28;20623;-82
2022/10/28 12:48:45;;;;;;;14.88;5.13;;;20.30;99.90;;;;;;5103559;28;20028;-80
2022/10/28 12:51:24;;;;;;;11.95;5.05;;;20.30;99.90;;;;;;5066976;28;20039;-80
2022/10/28 12:54:05;;;;;;;14.25;5.78;;;20.30;99.90;;;;;;5060548;28;20037;-79
2022/10/28 12:56:35;;;;;;;13.35;5.40;;;20.30;99.90;;;;;;5077207;28;20354;-82